Time;durP1;ratioP1;P1;durP2;ratioP2;P2;SDS_P1;SDS_P2;PMS_P1;PMS_P2;Temp;Humidity;BMP_temperature;BMP_pressure;BME280_temperature;BME280_humidity;BME280_pressure;Samples;Min_cycle;Max_cycle;Signal;HPM_P1;HPM_P2
2023/02/13 00:00:47;;;;;;;4.50;1.92;;;;;;;-5.94;98.40;99757.63;5109146;28;20040;-47
2023/02/13 00:03:13;;;;;;;6.15;2.33;;;;;;;-5.97;97.66;99757.53;5098890;28;20090;-49
2023/02/13 00:05:39;;;;;;;5.50;1.95;;;;;;;-5.92;97.24;99740.84;5109775;28;20653;-51
2023/02/13 00:08:05;;;;;;;6.38;1.45;;;;;;;-5.93;97.10;99723.06;5092014;28;20511;-48
2023/02/13 00:10:31;;;;;;;4.43;1.67;;;;;;;-5.92;96.35;99729.84;5122395;27;20126;-47
2023/02/13 00:12:57;;;;;;;3.50;1.45;;;;;;;-5.94;96.06;99723.84;5097040;28;20059;-50
2023/02/13 00:15:22;;;;;;;11.98;2.08;;;;;;;-5.93;95.51;99726.44;5108600;28;20040;-47
2023/02/13 00:17:48;;;;;;;5.38;1.17;;;;;;;-5.96;94.75;99726.34;5104596;28;20047;-47
2023/02/13 00:20:14;;;;;;;7.47;2.10;;;;;;;-5.99;94.36;99708.53;5101403;28;20064;-48
2023/02/13 00:22:40;;;;;;;5.32;1.92;;;;;;;-5.94;93.73;99713.72;5107752;28;20043;-50
2023/02/13 00:25:06;;;;;;;5.18;1.88;;;;;;;-5.88;93.31;99711.41;5109347;28;20046;-48
2023/02/13 00:27:32;;;;;;;3.80;1.15;;;;;;;-6.19;93.17;99656.44;5103002;28;20036;-48
2023/02/13 00:29:58;;;;;;;4.45;1.80;;;;;;;-5.88;92.80;99703.81;5100501;28;20075;-47
2023/02/13 00:32:24;;;;;;;3.28;1.40;;;;;;;-6.06;92.74;99673.72;5106421;28;20067;-51
2023/02/13 00:34:50;;;;;;;5.88;1.88;;;;;;;-6.12;92.23;99656.66;5107752;28;20582;-48
2023/02/13 00:37:16;;;;;;;5.47;1.48;;;;;;;-5.92;92.15;99687.69;5091478;28;20046;-48
2023/02/13 00:39:43;;;;;;;3.03;1.15;;;;;;;-6.34;91.97;99621.41;5105771;28;20043;-47
2023/02/13 00:42:09;;;;;;;3.28;0.95;;;;;;;-5.91;92.12;99670.81;5106304;28;20044;-48
2023/02/13 00:44:35;;;;;;;4.35;1.60;;;;;;;-5.92;91.97;99666.56;5067482;28;20063;-50
2023/02/13 00:47:02;;;;;;;5.15;1.60;;;;;;;-5.87;92.30;99670.97;5101959;28;20055;-48
2023/02/13 00:49:28;;;;;;;5.05;1.70;;;;;;;-5.88;91.85;99671.78;5109296;28;20469;-47
2023/02/13 00:51:54;;;;;;;4.13;1.30;;;;;;;-5.91;91.78;99660.69;5094626;28;20196;-48
2023/02/13 00:54:21;;;;;;;3.92;1.75;;;;;;;-5.99;91.84;99642.75;5064076;28;20042;-49
2023/02/13 00:56:47;;;;;;;5.18;1.55;;;;;;;-5.72;91.61;99665.47;5087841;28;20060;-48
2023/02/13 00:59:13;;;;;;;2.45;1.40;;;;;;;-5.59;91.09;99665.84;5106134;28;20104;-51
2023/02/13 01:01:39;;;;;;;1.17;0.73;;;;;;;-5.57;91.29;99674.38;5092096;28;20515;-49
2023/02/13 01:04:05;;;;;;;3.83;1.17;;;;;;;-5.65;91.02;99680.88;5108189;28;20478;-50
2023/02/13 01:06:30;;;;;;;3.42;1.25;;;;;;;-5.74;89.87;99674.66;5094581;28;20063;-50
2023/02/13 01:08:58;;;;;;;2.97;1.80;;;;;;;-6.12;89.85;99595.09;5107051;28;20503;-48
2023/02/13 01:11:24;;;;;;;1.55;0.85;;;;;;;-5.77;89.83;99665.34;5103414;28;20054;-51
2023/02/13 01:13:50;;;;;;;1.42;1.00;;;;;;;-5.80;88.78;99659.28;5096359;28;20075;-47
2023/02/13 01:16:19;;;;;;;3.17;1.23;;;;;;;-5.96;89.12;99614.13;5103224;28;20043;-47
2023/02/13 01:18:46;;;;;;;3.90;1.35;;;;;;;-5.70;89.20;99646.94;5098606;28;20127;-51
2023/02/13 01:21:25;;;;;;;7.90;2.58;;;;;;;-5.56;89.59;99638.09;5096592;28;20062;-51
2023/02/13 01:23:52;;;;;;;3.15;1.50;;;;;;;-5.49;90.10;99641.66;5095975;28;20043;-47
2023/02/13 01:26:21;;;;;;;3.17;1.20;;;;;;;-5.38;90.76;99635.22;5109001;28;20050;-50
2023/02/13 01:28:56;;;;;;;3.83;1.40;;;;;;;-5.49;90.65;99626.44;5077224;28;20534;-49
2023/02/13 01:31:23;;;;;;;4.85;1.70;;;;;;;-5.49;89.69;99623.91;5093926;28;21696;-49
2023/02/13 01:33:50;;;;;;;2.70;1.10;;;;;;;-5.48;89.04;99629.84;5101177;28;20042;-50
2023/02/13 01:36:16;;;;;;;3.80;1.67;;;;;;;-5.57;88.56;99611.06;5088109;28;20040;-47
2023/02/13 01:38:42;;;;;;;4.03;1.42;;;;;;;-5.57;88.81;99608.53;5106382;28;20040;-49
2023/02/13 01:41:09;;;;;;;2.65;1.40;;;;;;;-5.87;88.81;99536.81;5096438;28;20051;-49
2023/02/13 01:43:49;;;;;;;5.25;1.27;;;;;;;-5.38;89.74;99597.22;5094955;28;20078;-48
2023/02/13 01:46:18;;;;;;;6.68;1.80;;;;;;;-5.31;89.70;99599.13;5090371;28;20067;-50
2023/02/13 01:48:45;;;;;;;5.93;1.50;;;;;;;-5.55;89.50;99546.09;5099035;28;20036;-49
2023/02/13 01:51:16;;;;;;;4.03;1.50;;;;;;;-5.24;89.64;99578.22;5072048;28;20143;-49
2023/02/13 01:54:04;;;;;;;2.80;1.27;;;;;;;-5.33;89.45;99572.00;5090521;28;20040;-48
2023/02/13 01:56:33;;;;;;;1.70;1.23;;;;;;;-5.38;88.43;99563.44;5104981;28;20105;-47
2023/02/13 01:59:07;;;;;;;2.35;0.98;;;;;;;-5.50;88.35;99568.19;5090634;28;20047;-49
2023/02/13 02:01:33;;;;;;;2.50;0.85;;;;;;;-5.61;87.71;99565.34;5062021;28;20489;-50
2023/02/13 02:04:07;;;;;;;2.72;0.98;;;;;;;-5.50;88.58;99574.13;5107001;28;20127;-45
2023/02/13 02:06:38;;;;;;;4.60;1.02;;;;;;;-5.42;88.71;99569.25;5107255;28;20074;-50
2023/02/13 02:09:09;;;;;;;2.83;1.27;;;;;;;-5.38;88.39;99558.38;5090120;28;20043;-49
2023/02/13 02:11:54;;;;;;;3.65;1.45;;;;;;;-5.28;88.33;99557.78;5102582;28;20039;-49
2023/02/13 02:14:20;;;;;;;1.80;1.00;;;;;;;-5.29;88.50;99553.56;5081220;28;20036;-49
2023/02/13 02:16:46;;;;;;;3.90;1.67;;;;;;;-5.30;87.61;99561.97;5107862;28;20047;-46
2023/02/13 02:19:26;;;;;;;1.83;0.82;;;;;;;-5.36;87.54;99542.41;5095256;28;20039;-51
2023/02/13 02:22:25;;;;;;;4.63;1.35;;;;;;;-5.35;87.13;99533.13;5109006;28;20047;-47
2023/02/13 02:25:42;;;;;;;2.45;0.80;;;;;;;-5.36;86.42;99541.53;5088802;28;20047;-50
2023/02/13 02:28:19;;;;;;;4.03;1.10;;;;;;;-5.38;86.11;99538.97;4992070;28;20033;-48
2023/02/13 02:31:11;;;;;;;3.28;1.35;;;;;;;-5.44;86.07;99532.91;5007633;28;20158;-48
2023/02/13 02:33:37;;;;;;;5.03;1.08;;;;;;;-5.38;86.85;99530.50;4976390;28;20582;-45
2023/02/13 02:36:08;;;;;;;3.22;1.40;;;;;;;-5.34;86.62;99525.56;4972804;28;20065;-46
2023/02/13 02:38:58;;;;;;;2.25;1.15;;;;;;;-5.24;87.03;99526.69;4996434;28;20224;-48
2023/02/13 02:41:41;;;;;;;1.55;0.70;;;;;;;-5.23;86.63;99510.63;5007075;28;20441;-48
2023/02/13 02:44:20;;;;;;;3.00;1.45;;;;;;;-5.26;86.04;99506.34;4969574;28;20057;-46
2023/02/13 02:50:33;;;;;;;3.40;0.90;;;;;;;-5.27;84.67;99499.56;5007303;28;20569;-49
2023/02/13 02:53:06;;;;;;;3.00;0.70;;;;;;;-5.22;84.54;99498.00;4992385;28;20814;-46
2023/02/13 02:56:01;;;;;;;2.25;0.95;;;;;;;-5.19;85.02;99502.31;4983999;28;20528;-47
2023/02/13 03:07:15;;;;;;;0.57;0.38;;;;;;;-5.15;84.77;99474.56;5108441;28;20067;-47
2023/02/13 03:15:19;;;;;;;1.88;1.00;;;;;;;-5.19;84.60;99475.31;5110497;28;20035;-49
2023/02/13 03:24:22;;;;;;;2.67;1.00;;;;;;;-5.11;85.69;99455.19;5110049;28;20491;-49
2023/02/13 03:26:57;;;;;;;1.98;0.82;;;;;;;-5.13;86.03;99445.00;5030357;28;20507;-46
2023/02/13 03:32:16;;;;;;;1.80;1.10;;;;;;;-4.95;86.39;99431.94;5104463;28;20524;-48
2023/02/13 03:37:53;;;;;;;1.80;0.98;;;;;;;-4.93;86.62;99407.50;5054216;28;20899;-51
2023/02/13 03:40:32;;;;;;;3.08;1.20;;;;;;;-5.36;86.76;99334.69;5089339;28;20036;-49
2023/02/13 03:43:08;;;;;;;5.95;1.50;;;;;;;-4.97;86.66;99415.00;5101734;28;20070;-46
2023/02/13 03:45:52;;;;;;;3.35;1.52;;;;;;;-4.97;86.91;99415.81;5090474;28;20051;-48
2023/02/13 03:51:24;;;;;;;1.67;1.05;;;;;;;-4.87;87.87;99421.97;5104145;28;20031;-51
2023/02/13 03:53:54;;;;;;;2.20;1.25;;;;;;;-4.90;87.63;99420.22;5104006;28;20129;-51
2023/02/13 03:59:15;;;;;;;4.65;1.42;;;;;;;-4.86;88.05;99414.38;5098347;28;20044;-51
2023/02/13 04:01:56;;;;;;;5.25;1.40;;;;;;;-5.02;87.95;99376.84;5104561;28;20538;-48
2023/02/13 04:04:43;;;;;;;4.47;1.35;;;;;;;-4.72;88.32;99423.19;5106834;28;20043;-51
2023/02/13 04:07:11;;;;;;;4.30;1.55;;;;;;;-4.68;88.77;99410.56;5098373;27;20398;-51
2023/02/13 04:09:40;;;;;;;1.98;1.17;;;;;;;-4.66;89.34;99412.31;5109654;28;20459;-46
2023/02/13 04:12:24;;;;;;;1.73;0.77;;;;;;;-4.63;88.72;99399.69;5086212;28;20525;-48
2023/02/13 04:15:09;;;;;;;2.78;1.40;;;;;;;-4.64;88.72;99394.56;5106989;28;20395;-49
2023/02/13 04:17:46;;;;;;;6.13;1.90;;;;;;;-4.97;89.61;99314.44;5097059;28;20130;-45
2023/02/13 04:20:12;;;;;;;2.70;1.55;;;;;;;-4.56;89.65;99362.63;5103419;28;20042;-49
2023/02/13 04:22:45;;;;;;;7.55;2.42;;;;;;;-4.38;89.90;99365.53;5108391;28;20038;-49
2023/02/13 04:25:12;;;;;;;3.65;0.60;;;;;;;-4.37;89.95;99367.25;5105672;28;20040;-49
2023/02/13 04:27:39;;;;;;;3.40;0.93;;;;;;;-4.33;89.99;99363.94;5095281;28;20043;-48
2023/02/13 04:30:08;;;;;;;5.40;2.00;;;;;;;-4.50;89.96;99334.88;5103205;28;20036;-46
2023/02/13 04:32:34;;;;;;;3.00;1.60;;;;;;;-4.32;90.31;99360.56;5093489;28;20042;-51
2023/02/13 04:35:00;;;;;;;3.58;1.35;;;;;;;-4.59;90.31;99322.84;5096326;28;20058;-49
2023/02/13 04:37:26;;;;;;;7.43;1.77;;;;;;;-4.31;91.05;99347.06;5096587;28;20415;-52
2023/02/13 04:39:52;;;;;;;7.07;1.83;;;;;;;-4.30;90.34;99347.09;5095992;28;20492;-45
2023/02/13 04:42:18;;;;;;;5.88;1.23;;;;;;;-4.29;90.82;99340.31;5099187;28;20039;-44
2023/02/13 04:44:44;;;;;;;1.50;0.90;;;;;;;-4.33;90.54;99326.72;5095665;28;20055;-48
2023/02/13 04:47:09;;;;;;;1.60;0.80;;;;;;;-4.28;90.80;99331.88;5098546;28;20043;-49
2023/02/13 04:49:35;;;;;;;1.25;0.73;;;;;;;-4.32;91.08;99314.91;5079342;28;20112;-48
2023/02/13 04:52:01;;;;;;;2.28;1.27;;;;;;;-4.18;90.94;99331.22;5100745;28;20126;-51
2023/02/13 04:54:27;;;;;;;2.03;1.20;;;;;;;-4.18;91.29;99318.53;5096799;28;20484;-52
2023/02/13 04:56:53;;;;;;;6.63;1.48;;;;;;;-4.14;91.29;99309.31;5064854;28;20035;-50
2023/02/13 04:59:19;;;;;;;3.33;0.95;;;;;;;-4.29;91.21;99271.81;5096008;28;20035;-51
2023/02/13 05:01:45;;;;;;;0.45;0.22;;;;;;;-4.08;91.00;99309.44;5102197;28;20486;-50
2023/02/13 05:04:15;;;;;;;3.28;1.05;;;;;;;-4.08;91.33;99305.19;5107759;28;20039;-53
2023/02/13 05:06:41;;;;;;;1.27;0.90;;;;;;;-4.01;91.21;99296.88;5102241;28;20427;-49
2023/02/13 05:09:08;;;;;;;3.17;1.10;;;;;;;-4.17;91.63;99269.50;5087487;28;20035;-50
2023/02/13 05:11:34;;;;;;;1.77;0.60;;;;;;;-4.19;91.30;99247.47;5093734;28;20051;-49
2023/02/13 05:14:00;;;;;;;3.03;1.23;;;;;;;-4.06;90.72;99277.31;5078518;28;20058;-47
2023/02/13 05:16:26;;;;;;;1.48;0.57;;;;;;;-4.10;91.17;99285.69;5108904;28;20495;-48
2023/02/13 05:18:53;;;;;;;2.05;0.90;;;;;;;-3.97;91.16;99291.00;5099646;28;20048;-49
2023/02/13 05:24:04;;;;;;;1.50;0.88;;;;;;;-4.06;90.46;99259.53;5108350;28;20036;-52
2023/02/13 05:26:30;;;;;;;1.63;0.88;;;;;;;-3.80;90.80;99300.59;5103800;28;20051;-52
2023/02/13 05:31:40;;;;;;;7.22;1.63;;;;;;;-4.03;90.14;99241.84;5108061;28;20047;-48
2023/02/13 05:34:06;;;;;;;1.55;0.90;;;;;;;-3.83;90.26;99270.94;5107235;28;20039;-49
2023/02/13 05:36:32;;;;;;;2.85;0.50;;;;;;;-3.78;89.75;99268.47;5106832;28;20042;-50
2023/02/13 05:38:58;;;;;;;1.48;0.60;;;;;;;-3.76;90.01;99270.19;5107491;28;20532;-48
2023/02/13 05:41:24;;;;;;;4.90;1.42;;;;;;;-3.69;89.44;99258.44;5108044;28;20039;-49
2023/02/13 05:43:49;;;;;;;4.63;1.50;;;;;;;-3.56;89.78;99268.81;5105040;28;20534;-49
2023/02/13 05:46:15;;;;;;;2.72;1.30;;;;;;;-3.49;89.85;99273.16;5096227;28;20107;-49
2023/02/13 05:48:41;;;;;;;1.90;0.90;;;;;;;-3.47;89.93;99271.50;5096605;28;20203;-50
2023/02/13 05:51:07;;;;;;;7.05;1.15;;;;;;;-3.40;89.59;99279.22;5108712;28;20043;-49
2023/02/13 05:53:34;;;;;;;4.95;1.40;;;;;;;-3.36;89.36;99273.34;5092768;28;20039;-50
2023/02/13 05:56:01;;;;;;;3.40;0.93;;;;;;;-3.37;88.83;99281.78;5108916;28;20422;-51
2023/02/13 05:58:27;;;;;;;5.55;1.30;;;;;;;-3.34;88.37;99269.13;5108471;28;20048;-47
2023/02/13 06:00:57;;;;;;;1.80;0.77;;;;;;;-3.69;88.30;99211.03;5110564;28;20035;-49
2023/02/13 06:03:23;;;;;;;1.85;1.20;;;;;;;-3.29;87.47;99273.44;5111132;28;20054;-50
2023/02/13 06:05:50;;;;;;;1.50;0.82;;;;;;;-3.27;87.29;99256.53;5093176;28;20051;-47
2023/02/13 06:08:16;;;;;;;2.67;1.00;;;;;;;-3.28;86.84;99267.53;5110847;28;20784;-54
2023/02/13 06:10:41;;;;;;;2.35;0.95;;;;;;;-3.24;87.12;99261.66;5109185;28;20119;-52
2023/02/13 06:13:07;;;;;;;1.17;0.68;;;;;;;-3.60;86.35;99198.47;5102320;28;20084;-48
2023/02/13 06:15:33;;;;;;;4.82;1.40;;;;;;;-3.09;86.81;99261.84;5111891;28;20035;-46
2023/02/13 06:17:59;;;;;;;2.30;0.88;;;;;;;-3.45;86.15;99203.75;5111198;28;20035;-46
2023/02/13 06:20:25;;;;;;;2.85;0.98;;;;;;;-3.01;86.22;99267.03;5101580;28;20505;-52
2023/02/13 06:22:51;;;;;;;4.53;1.30;;;;;;;-2.98;86.02;99264.53;5107376;28;20035;-48
2023/02/13 06:25:18;;;;;;;3.28;1.27;;;;;;;-2.92;85.93;99268.84;5100754;28;20061;-46
2023/02/13 06:27:44;;;;;;;1.05;0.68;;;;;;;-2.82;85.61;99263.03;5105997;27;20480;-47
2023/02/13 06:30:11;;;;;;;2.33;1.17;;;;;;;-2.83;85.42;99259.66;5083748;28;20040;-47
2023/02/13 06:32:36;;;;;;;4.15;1.23;;;;;;;-2.77;85.73;99258.84;5091748;28;20039;-51
2023/02/13 06:35:02;;;;;;;5.55;1.27;;;;;;;-2.81;85.28;99247.78;5089203;28;20036;-47
2023/02/13 06:37:29;;;;;;;3.88;1.10;;;;;;;-2.78;84.76;99240.22;5094173;28;20043;-48
2023/02/13 06:39:55;;;;;;;6.43;1.60;;;;;;;-2.94;84.95;99200.19;5091807;28;20245;-49
2023/02/13 06:42:21;;;;;;;2.72;0.65;;;;;;;-2.63;85.35;99230.22;5090233;28;20036;-47
2023/02/13 06:44:47;;;;;;;5.22;1.20;;;;;;;-2.61;85.27;99220.03;5101987;28;20051;-49
2023/02/13 06:47:12;;;;;;;6.68;1.10;;;;;;;-2.66;84.95;99225.06;5110576;28;20039;-48
2023/02/13 06:49:38;;;;;;;3.38;1.33;;;;;;;-2.64;85.21;99225.94;5110880;28;20042;-51
2023/02/13 06:52:04;;;;;;;3.28;1.02;;;;;;;-2.65;84.59;99225.94;5109642;28;20035;-47
2023/02/13 06:54:31;;;;;;;2.55;1.00;;;;;;;-2.70;84.58;99219.94;5109161;28;20451;-48
2023/02/13 06:56:57;;;;;;;5.45;1.67;;;;;;;-2.70;84.76;99218.25;5093440;28;20038;-48
2023/02/13 06:59:23;;;;;;;5.60;1.30;;;;;;;-2.67;84.53;99213.19;5111364;28;20039;-54
2023/02/13 07:01:49;;;;;;;2.50;1.08;;;;;;;-2.67;84.37;99214.91;5111501;28;20043;-48
2023/02/13 07:04:15;;;;;;;1.75;0.73;;;;;;;-2.59;84.67;99210.72;5110154;28;20108;-48
2023/02/13 07:06:41;;;;;;;3.05;0.98;;;;;;;-2.61;84.84;99218.34;5110653;28;20035;-49
2023/02/13 07:09:07;;;;;;;4.00;1.45;;;;;;;-2.91;84.54;99158.66;5091783;28;20533;-54
2023/02/13 07:11:33;;;;;;;3.10;1.15;;;;;;;-2.60;84.48;99194.59;5092939;28;20044;-51
2023/02/13 07:13:59;;;;;;;4.65;1.45;;;;;;;-2.55;84.78;99192.09;5092424;28;20031;-52
2023/02/13 07:16:24;;;;;;;4.55;1.70;;;;;;;-2.47;84.64;99194.75;5090957;28;20116;-51
2023/02/13 07:18:50;;;;;;;6.07;1.52;;;;;;;-2.33;85.10;99185.53;5090634;28;20543;-47
2023/02/13 07:21:16;;;;;;;4.65;1.50;;;;;;;-2.22;84.92;99206.84;5092090;28;20051;-48
2023/02/13 07:23:42;;;;;;;3.55;1.85;;;;;;;-2.33;84.69;99155.84;5110339;27;20041;-48
2023/02/13 07:26:09;;;;;;;3.25;1.73;;;;;;;-2.15;84.61;99176.34;5105358;28;20064;-48
2023/02/13 07:28:35;;;;;;;7.68;1.98;;;;;;;-2.05;84.72;99182.38;5089533;28;20131;-47
2023/02/13 07:31:05;;;;;;;2.58;1.02;;;;;;;-1.89;84.86;99180.81;5107410;28;20526;-51
2023/02/13 07:33:34;;;;;;;3.60;1.77;;;;;;;-1.70;84.65;99177.53;5108999;28;20615;-46
2023/02/13 07:36:02;;;;;;;2.35;1.30;;;;;;;-1.62;84.21;99180.97;5079339;28;20065;-49
2023/02/13 07:38:31;;;;;;;8.25;1.33;;;;;;;-1.63;83.47;99170.78;5072280;28;20536;-51
2023/02/13 07:40:58;;;;;;;2.72;1.45;;;;;;;-1.80;83.05;99127.38;5090124;28;20047;-47
2023/02/13 07:43:24;;;;;;;1.00;0.63;;;;;;;-1.61;82.75;99157.19;5090694;28;20060;-51
2023/02/13 07:45:54;;;;;;;1.98;1.00;;;;;;;-1.82;82.27;99121.41;5104909;28;20070;-51
2023/02/13 07:48:26;;;;;;;5.45;1.60;;;;;;;-1.84;82.76;99128.19;5109496;28;20084;-48
2023/02/13 07:50:52;;;;;;;2.53;1.50;;;;;;;-1.87;82.69;99115.41;5109549;27;20058;-51
2023/02/13 07:53:18;;;;;;;3.78;1.42;;;;;;;-1.58;82.71;99162.31;5108914;28;20122;-45
2023/02/13 07:55:44;;;;;;;3.47;1.60;;;;;;;-1.57;83.56;99138.50;5104967;28;20099;-43
2023/02/13 07:58:10;;;;;;;4.75;1.98;;;;;;;-1.25;83.55;99160.75;5110643;28;20430;-47
2023/02/13 08:00:36;;;;;;;7.70;1.88;;;;;;;-1.18;83.44;99149.75;5109322;28;20043;-49
2023/02/13 08:03:03;;;;;;;1.90;1.00;;;;;;;-1.07;83.21;99153.19;5110119;28;20043;-54
2023/02/13 08:05:30;;;;;;;3.15;1.60;;;;;;;-1.02;83.12;99156.63;5110024;28;20043;-46
2023/02/13 08:07:56;;;;;;;5.15;1.33;;;;;;;-0.93;83.51;99157.50;5107943;28;20044;-48
2023/02/13 08:13:11;;;;;;;3.20;1.42;;;;;;;-1.08;82.78;99152.34;5107212;28;20047;-47
2023/02/13 08:15:37;;;;;;;6.28;1.70;;;;;;;-1.20;82.72;99121.69;5108420;28;20066;-46
2023/02/13 08:18:03;;;;;;;2.15;0.90;;;;;;;-1.07;82.56;99132.78;5106460;28;20120;-48
2023/02/13 08:20:30;;;;;;;4.97;1.80;;;;;;;-1.26;82.79;99106.38;5109159;28;20047;-48
2023/02/13 08:23:04;;;;;;;7.88;2.10;;;;;;;-1.06;82.94;99135.34;5108478;28;20047;-47
2023/02/13 08:25:30;;;;;;;3.80;2.08;;;;;;;-1.03;83.20;99131.94;5107873;28;20191;-50
2023/02/13 08:27:58;;;;;;;2.80;1.40;;;;;;;-0.95;83.59;99125.19;5109659;28;20126;-49
2023/02/13 08:30:23;;;;;;;3.47;1.73;;;;;;;-0.92;83.22;99123.47;5109385;28;20039;-47
2023/02/13 08:32:49;;;;;;;5.30;1.80;;;;;;;-0.81;83.56;99115.84;5108167;28;20031;-48
2023/02/13 08:35:15;;;;;;;10.88;1.90;;;;;;;-0.82;83.08;99110.72;5108120;28;20039;-50
2023/02/13 08:37:41;;;;;;;6.55;1.60;;;;;;;-0.83;83.46;99106.47;5090971;28;20109;-49
2023/02/13 08:40:10;;;;;;;2.15;1.23;;;;;;;-0.82;83.37;99105.63;5108358;28;20054;-46
2023/02/13 08:42:36;;;;;;;3.25;1.35;;;;;;;-0.78;83.69;99097.97;5108222;28;20128;-47
2023/02/13 08:45:03;;;;;;;4.78;1.67;;;;;;;-0.83;84.36;99065.66;5107636;28;20066;-51
2023/02/13 08:47:31;;;;;;;6.85;2.03;;;;;;;-0.56;84.06;99096.31;5108083;28;20506;-48
2023/02/13 08:49:57;;;;;;;4.35;1.50;;;;;;;-0.44;84.19;99094.63;5108311;28;20081;-48
2023/02/13 08:52:23;;;;;;;2.03;1.25;;;;;;;-0.40;83.58;99089.50;5109549;28;20118;-49
2023/02/13 08:54:49;;;;;;;3.40;1.77;;;;;;;-0.34;83.80;99085.25;5109159;28;20131;-50
2023/02/13 08:57:15;;;;;;;2.25;1.42;;;;;;;-0.43;83.48;99086.13;5109526;28;20763;-49
2023/02/13 08:59:40;;;;;;;4.35;1.75;;;;;;;-0.51;84.24;99054.63;5109298;28;20035;-47
2023/02/13 09:02:09;;;;;;;6.63;2.15;;;;;;;-0.38;84.28;99083.56;5108913;28;20104;-47
2023/02/13 09:04:35;;;;;;;7.32;2.60;;;;;;;-0.32;85.17;99087.81;5109164;28;20039;-48
2023/02/13 09:07:01;;;;;;;5.18;2.03;;;;;;;-0.17;86.00;99081.00;5106935;28;20043;-52
2023/02/13 09:09:27;;;;;;;6.32;2.45;;;;;;;-0.10;85.98;99080.09;5109003;28;20525;-48
2023/02/13 09:11:56;;;;;;;11.88;2.75;;;;;;;-0.02;86.78;99082.66;5109025;28;20039;-48
2023/02/13 09:14:25;;;;;;;2.08;1.25;;;;;;;-0.13;86.88;99075.00;5087827;28;20404;-47
2023/02/13 09:16:51;;;;;;;6.43;2.25;;;;;;;-0.14;87.70;99073.31;5108100;28;20027;-45
2023/02/13 09:19:17;;;;;;;5.03;1.35;;;;;;;-0.09;88.11;99065.63;5108925;27;20040;-48
2023/02/13 09:21:43;;;;;;;7.78;2.55;;;;;;;-0.27;88.45;99051.22;5107478;28;20163;-46
2023/02/13 09:24:10;;;;;;;3.42;1.83;;;;;;;-0.16;88.66;99066.53;5106872;28;20161;-46
2023/02/13 09:26:36;;;;;;;5.35;2.00;;;;;;;-0.35;88.99;99027.38;5107351;28;20482;-48
2023/02/13 09:29:02;;;;;;;6.20;2.67;;;;;;;-0.13;89.19;99053.72;5090697;28;20043;-47
2023/02/13 09:31:28;;;;;;;3.58;1.30;;;;;;;-0.47;89.56;98983.97;5108370;28;20046;-47
2023/02/13 09:33:54;;;;;;;4.43;2.47;;;;;;;-0.07;90.33;99031.59;5108960;28;20043;-49
2023/02/13 09:36:22;;;;;;;3.55;1.95;;;;;;;0.23;91.23;99035.75;5107304;28;20043;-47
2023/02/13 09:38:53;;;;;;;3.70;1.85;;;;;;;0.28;91.06;99023.78;5090776;28;20044;-50
2023/02/13 09:41:23;;;;;;;7.93;2.15;;;;;;;0.32;90.87;99024.63;5108676;28;20126;-51
2023/02/13 09:43:50;;;;;;;;;;;;;;;0.57;91.20;99017.72;5107700;28;20047;-48
2023/02/13 09:46:45;;;;;;;4.95;2.10;;;;;;;0.65;91.51;99015.94;5107349;28;19923;-47
2023/02/13 09:49:18;;;;;;;5.93;2.15;;;;;;;0.64;91.81;99002.31;5086435;28;20063;-48
2023/02/13 09:51:44;;;;;;;5.63;2.30;;;;;;;0.75;91.44;99012.47;5107467;28;20047;-46
2023/02/13 09:54:14;;;;;;;5.40;2.20;;;;;;;0.69;90.92;99009.94;5108738;28;20043;-47
2023/02/13 09:57:11;;;;;;;4.68;2.03;;;;;;;0.40;90.46;98985.41;5107411;28;20040;-46
2023/02/13 10:00:14;;;;;;;9.63;2.95;;;;;;;0.63;90.97;99007.47;5090371;28;20276;-47
2023/02/13 10:03:12;;;;;;;6.35;2.40;;;;;;;0.64;90.86;99006.56;5106653;28;20047;-50
2023/02/13 10:05:56;;;;;;;6.80;1.98;;;;;;;0.64;91.43;98999.75;5080484;28;20056;-46
2023/02/13 10:08:22;;;;;;;6.95;2.40;;;;;;;0.54;91.87;98998.09;5107380;28;20066;-45
2023/02/13 10:10:52;;;;;;;3.72;1.83;;;;;;;0.13;91.25;98938.66;5107342;28;20079;-47
2023/02/13 10:13:29;;;;;;;7.97;3.25;;;;;;;0.40;90.88;98997.34;5084782;28;20496;-48
2023/02/13 10:16:04;;;;;;;5.18;2.53;;;;;;;0.43;91.65;98995.59;5104526;28;20117;-48
2023/02/13 10:18:42;;;;;;;9.50;2.90;;;;;;;0.45;92.64;98993.06;5108424;28;20080;-55
2023/02/13 10:21:09;;;;;;;10.45;2.70;;;;;;;0.57;93.02;98987.03;5107124;28;20035;-51
2023/02/13 10:23:39;;;;;;;8.18;3.38;;;;;;;0.75;94.59;98989.47;5107112;28;20039;-48
2023/02/13 10:26:41;;;;;;;12.05;3.08;;;;;;;0.71;94.14;98985.22;5106632;28;20043;-48
2023/02/13 10:32:36;;;;;;;9.40;2.43;;;;;;;0.88;94.49;98980.00;5025025;28;20045;-46
2023/02/13 10:35:03;;;;;;;3.55;1.90;;;;;;;1.10;94.76;98969.56;5081632;28;20278;-49
2023/02/13 10:37:29;;;;;;;10.05;3.30;;;;;;;1.10;94.16;98968.75;5107113;28;20050;-47
2023/02/13 10:39:55;;;;;;;3.70;2.28;;;;;;;1.28;94.36;98966.03;5108320;28;20043;-47
2023/02/13 10:42:38;;;;;;;6.00;2.40;;;;;;;1.19;93.46;98968.69;5107070;28;20104;-50
2023/02/13 10:45:25;;;;;;;6.10;2.80;;;;;;;1.15;93.53;98960.16;5110362;28;20039;-51
2023/02/13 10:47:57;;;;;;;6.32;3.03;;;;;;;1.13;93.98;98953.38;5100200;28;20096;-47
2023/02/13 10:50:29;;;;;;;5.07;2.60;;;;;;;1.16;94.88;98950.75;5108808;28;20518;-51
2023/02/13 10:53:19;;;;;;;11.88;2.88;;;;;;;1.10;94.86;98941.41;5111683;28;20040;-48
2023/02/13 10:56:09;;;;;;;6.15;2.47;;;;;;;1.20;95.47;98944.78;5089221;28;20124;-47
2023/02/13 10:59:04;;;;;;;3.15;2.25;;;;;;;1.11;94.64;98938.00;5090046;28;20044;-50
2023/02/13 11:02:20;;;;;;;6.75;3.13;;;;;;;1.17;94.67;98935.41;5102267;28;20047;-47
2023/02/13 11:04:46;;;;;;;12.77;2.97;;;;;;;1.29;95.41;98926.75;5124566;27;20063;-52
2023/02/13 11:07:14;;;;;;;9.45;2.63;;;;;;;1.38;95.36;98916.44;5109933;28;20078;-45
2023/02/13 11:09:41;;;;;;;8.67;2.90;;;;;;;1.48;95.25;98919.75;5110238;28;20126;-50
2023/02/13 11:12:22;;;;;;;9.60;3.10;;;;;;;1.59;95.82;98920.47;5093003;28;20308;-48
2023/02/13 11:15:07;;;;;;;5.97;2.60;;;;;;;1.62;96.04;98928.16;5111213;28;20050;-48
2023/02/13 11:17:35;;;;;;;6.63;3.05;;;;;;;1.56;96.18;98921.38;5091726;28;20100;-47
2023/02/13 11:20:37;;;;;;;6.50;3.20;;;;;;;1.45;95.41;98923.19;5092848;28;20066;-47
2023/02/13 11:23:27;;;;;;;4.93;2.05;;;;;;;1.35;95.40;98926.72;5109899;28;20503;-46
2023/02/13 11:25:59;;;;;;;7.38;4.65;;;;;;;1.32;95.80;98913.06;5109380;28;20047;-46
2023/02/13 11:28:28;;;;;;;7.63;2.97;;;;;;;1.24;96.93;98874.75;5109378;28;20085;-47
2023/02/13 11:31:08;;;;;;;9.15;3.75;;;;;;;1.48;98.07;98906.94;5109214;28;20518;-48
2023/02/13 11:33:34;;;;;;;8.27;2.78;;;;;;;1.49;98.28;98899.25;5110850;27;20036;-50
2023/02/13 11:36:09;;;;;;;10.43;3.20;;;;;;;1.55;99.38;98898.34;5110269;28;20039;-47
2023/02/13 11:38:35;;;;;;;12.65;3.70;;;;;;;1.37;99.86;98855.81;5109648;28;20047;-50
2023/02/13 11:41:09;;;;;;;7.30;3.00;;;;;;;1.60;100.00;98871.81;5110772;28;20058;-50
2023/02/13 11:43:52;;;;;;;6.25;3.00;;;;;;;1.39;100.00;98851.56;5110621;28;20142;-51
2023/02/13 11:46:20;;;;;;;6.10;2.85;;;;;;;1.60;100.00;98876.94;5110191;28;20095;-46
2023/02/13 11:49:04;;;;;;;7.68;3.17;;;;;;;1.60;100.00;98866.69;5109526;28;20116;-47
2023/02/13 11:51:41;;;;;;;16.23;3.70;;;;;;;1.61;100.00;98836.78;5092394;28;20040;-50
2023/02/13 11:54:22;;;;;;;3.28;1.95;;;;;;;1.59;100.00;98828.25;5091201;28;20471;-47
2023/02/13 11:56:50;;;;;;;5.90;3.00;;;;;;;1.75;100.00;98862.22;5110094;28;20043;-46
2023/02/13 11:59:16;;;;;;;4.80;2.55;;;;;;;1.93;100.00;98867.13;5109165;28;20085;-45
2023/02/13 12:01:43;;;;;;;4.97;2.40;;;;;;;1.90;100.00;98857.75;5109880;28;20051;-47
2023/02/13 12:04:17;;;;;;;6.38;2.65;;;;;;;1.89;98.37;98850.94;5109781;28;20031;-50
2023/02/13 12:07:23;;;;;;;8.43;2.58;;;;;;;1.94;97.51;98838.06;5108631;28;20047;-49
2023/02/13 12:10:17;;;;;;;5.05;2.45;;;;;;;1.94;97.29;98833.78;5095042;28;20509;-46
2023/02/13 12:12:52;;;;;;;4.60;2.50;;;;;;;1.96;97.38;98833.75;5102280;28;20075;-46
2023/02/13 12:15:22;;;;;;;7.68;1.95;;;;;;;1.95;96.91;98835.47;5109978;28;20050;-47
2023/02/13 12:18:22;;;;;;;5.20;2.58;;;;;;;1.96;97.37;98836.31;5109497;28;20040;-47
2023/02/13 12:20:57;;;;;;;13.60;3.00;;;;;;;1.98;97.79;98848.28;5109895;28;20036;-49
2023/02/13 12:23:39;;;;;;;7.47;2.67;;;;;;;1.94;97.72;98838.06;5108524;28;20035;-49
2023/02/13 12:26:13;;;;;;;8.80;2.08;;;;;;;1.87;97.13;98831.34;5108409;28;20096;-49
2023/02/13 12:28:58;;;;;;;9.15;2.63;;;;;;;1.88;96.79;98833.88;5070954;28;20043;-48
2023/02/13 12:31:46;;;;;;;6.18;2.30;;;;;;;2.02;97.37;98824.28;5089161;28;20050;-49
2023/02/13 12:34:40;;;;;;;6.30;2.40;;;;;;;2.01;97.39;98817.47;5108436;28;20049;-50
2023/02/13 12:37:53;;;;;;;3.63;2.00;;;;;;;2.03;96.70;98830.25;5108166;28;20092;-52
2023/02/13 12:40:34;;;;;;;6.35;2.65;;;;;;;2.02;96.79;98824.28;5026352;28;20052;-50